Time;durP1;ratioP1;P1;durP2;ratioP2;P2;SDS_P1;SDS_P2;PMS_P1;PMS_P2;Temp;Humidity;BMP_temperature;BMP_pressure;BME280_temperature;BME280_humidity;BME280_pressure;Samples;Min_cycle;Max_cycle;Signal;HPM_P1;HPM_P2
2022/05/04 00:00:38;;;;;;;7.82;4.40;;;;;;;9.04;74.99;99452.75;4961055;28;20091;-86
2022/05/04 00:03:04;;;;;;;6.93;4.05;;;;;;;9.13;74.46;99469.25;4978049;28;20026;-86
2022/05/04 00:05:31;;;;;;;5.25;4.30;;;;;;;9.07;74.63;99448.78;4982100;28;20403;-86
2022/05/04 00:07:57;;;;;;;7.47;4.30;;;;;;;9.09;74.32;99460.06;4998327;28;20564;-86
2022/05/04 00:10:24;;;;;;;7.57;4.90;;;;;;;9.08;74.76;99461.91;4999094;28;20032;-86
2022/05/04 00:12:51;;;;;;;7.47;4.60;;;;;;;9.07;74.48;99446.09;4998444;28;20032;-86
2022/05/04 00:15:17;;;;;;;6.97;4.50;;;;;;;9.08;74.35;99447.69;4981796;28;20085;-87
2022/05/04 00:17:43;;;;;;;5.70;4.32;;;;;;;9.08;74.54;99463.81;4981569;28;20030;-86
2022/05/04 00:20:09;;;;;;;5.75;4.53;;;;;;;9.02;74.67;99457.56;4998802;28;20456;-85
2022/05/04 00:22:35;;;;;;;5.78;4.25;;;;;;;9.01;74.47;99460.53;4999789;28;20050;-86
2022/05/04 00:25:03;;;;;;;5.55;4.43;;;;;;;8.95;74.78;99456.19;5017293;28;20037;-86
2022/05/04 00:27:30;;;;;;;5.63;4.20;;;;;;;8.92;74.02;99454.00;5017019;28;20045;-86
2022/05/04 00:29:55;;;;;;;5.50;4.45;;;;;;;8.90;75.29;99455.06;5001198;28;20026;-86
2022/05/04 00:32:23;;;;;;;8.38;4.30;;;;;;;8.89;74.77;99455.31;5000067;28;20056;-86
2022/05/04 00:34:49;;;;;;;6.00;4.03;;;;;;;8.94;73.97;99449.97;5017935;28;20026;-86
2022/05/04 00:37:15;;;;;;;8.90;3.63;;;;;;;9.09;74.02;99457.38;5000201;28;20514;-85
2022/05/04 00:39:40;;;;;;;5.38;4.10;;;;;;;9.00;74.27;99458.91;5016245;28;20069;-85
2022/05/04 00:42:09;;;;;;;4.85;3.97;;;;;;;9.03;74.21;99455.72;5000130;28;20034;-85
2022/05/04 00:44:36;;;;;;;4.55;4.10;;;;;;;8.92;74.77;99452.13;5015921;28;20029;-86
2022/05/04 00:47:04;;;;;;;6.20;4.05;;;;;;;8.85;74.79;99448.84;5018087;28;20026;-87
2022/05/04 00:49:29;;;;;;;5.07;4.30;;;;;;;8.79;75.22;99449.88;5000347;28;20117;-87
2022/05/04 00:51:55;;;;;;;6.03;4.30;;;;;;;8.78;75.18;99448.22;5000621;28;20021;-87
2022/05/04 00:54:22;;;;;;;9.63;4.43;;;;;;;8.77;75.78;99463.53;4999003;28;20065;-86
2022/05/04 00:56:48;;;;;;;5.15;4.40;;;;;;;8.67;75.14;99450.00;5001049;28;20390;-87
2022/05/04 00:59:14;;;;;;;7.72;4.35;;;;;;;8.64;75.25;99448.66;5016563;28;20050;-87
2022/05/04 01:01:40;;;;;;;6.95;4.00;;;;;;;8.65;75.38;99449.44;5000517;28;20037;-86
2022/05/04 01:04:06;;;;;;;6.55;3.83;;;;;;;8.60;75.26;99458.28;4999552;28;20030;-86
2022/05/04 01:06:32;;;;;;;5.03;4.38;;;;;;;8.65;75.02;99460.19;5000157;28;20037;-86
2022/05/04 01:08:58;;;;;;;8.00;4.00;;;;;;;8.75;74.22;99456.81;5000035;28;20029;-87
2022/05/04 01:11:23;;;;;;;8.00;3.95;;;;;;;8.74;74.70;99457.88;4999891;28;20033;-87
2022/05/04 01:14:03;;;;;;;6.35;4.32;;;;;;;8.74;74.81;99452.50;5015548;28;20443;-87
2022/05/04 01:16:30;;;;;;;5.30;4.50;;;;;;;8.78;74.57;99453.59;4998445;28;20066;-86
2022/05/04 01:18:58;;;;;;;5.68;4.40;;;;;;;8.77;74.60;99454.69;4999526;28;20396;-86
2022/05/04 01:21:23;;;;;;;5.82;4.63;;;;;;;8.59;75.35;99453.16;5015223;28;20475;-86
2022/05/04 01:23:51;;;;;;;7.30;4.10;;;;;;;8.55;75.37;99443.97;4999652;28;20037;-86
2022/05/04 01:26:19;;;;;;;5.85;4.10;;;;;;;8.54;75.98;99450.44;5015756;28;20108;-86
2022/05/04 01:28:44;;;;;;;5.00;4.13;;;;;;;8.44;76.29;99451.13;5015215;28;20026;-86
2022/05/04 01:31:11;;;;;;;6.32;4.55;;;;;;;8.46;75.94;99455.16;4999879;28;20484;-86
2022/05/04 01:33:36;;;;;;;7.47;4.10;;;;;;;8.36;76.03;99452.34;4999319;28;20141;-86
2022/05/04 01:36:03;;;;;;;7.72;4.70;;;;;;;8.44;76.05;99459.19;4999479;28;20164;-87
2022/05/04 01:38:29;;;;;;;7.78;4.18;;;;;;;8.52;76.20;99455.25;5015973;28;20076;-85
2022/05/04 01:40:55;;;;;;;8.50;4.10;;;;;;;8.47;75.97;99451.44;5016625;28;20030;-86
2022/05/04 01:43:21;;;;;;;4.13;3.55;;;;;;;8.49;75.75;99465.41;4998834;28;20040;-85
2022/05/04 01:45:48;;;;;;;4.32;3.92;;;;;;;8.54;75.45;99459.28;4998728;28;20045;-86
2022/05/04 01:48:16;;;;;;;5.28;3.70;;;;;;;8.47;75.65;99458.69;5014088;28;20022;-86
2022/05/04 01:50:42;;;;;;;5.22;3.75;;;;;;;8.44;75.48;99457.28;5014974;28;20060;-86
2022/05/04 01:53:08;;;;;;;5.65;3.72;;;;;;;8.52;75.26;99453.34;4998151;28;20099;-86
2022/05/04 01:55:35;;;;;;;6.05;3.90;;;;;;;8.46;75.45;99449.81;4998280;28;20434;-86
2022/05/04 01:58:03;;;;;;;8.40;3.80;;;;;;;8.41;76.15;99451.66;5013898;28;20240;-86
2022/05/04 02:00:29;;;;;;;6.75;3.85;;;;;;;8.53;76.14;99463.03;4998324;28;20487;-86
2022/05/04 02:02:57;;;;;;;8.20;3.67;;;;;;;8.55;75.58;99457.41;4998835;28;20026;-86
2022/05/04 02:05:22;;;;;;;4.63;3.65;;;;;;;8.51;75.77;99459.81;4998449;28;20029;-86
2022/05/04 02:07:48;;;;;;;4.88;3.88;;;;;;;8.53;75.29;99463.03;4998406;28;20065;-86
2022/05/04 02:10:14;;;;;;;5.85;4.10;;;;;;;8.49;75.24;99459.25;5015462;28;20105;-86
2022/05/04 02:12:39;;;;;;;4.90;4.30;;;;;;;8.40;75.60;99453.47;4998442;28;20061;-86
2022/05/04 02:15:05;;;;;;;5.45;3.88;;;;;;;8.57;74.88;99456.09;4998293;28;20037;-86
2022/05/04 02:17:31;;;;;;;5.43;3.92;;;;;;;8.43;75.41;99458.38;5014350;28;20037;-86
2022/05/04 02:19:56;;;;;;;8.75;3.90;;;;;;;8.51;75.28;99459.81;4997666;28;20465;-86
2022/05/04 02:22:22;;;;;;;5.30;3.75;;;;;;;8.58;75.13;99470.34;4998255;28;20531;-87
2022/05/04 02:24:47;;;;;;;5.95;4.20;;;;;;;8.63;74.64;99459.63;4998401;28;20056;-87
2022/05/04 02:27:13;;;;;;;5.35;3.55;;;;;;;8.62;74.41;99447.28;4998895;28;20389;-87
2022/05/04 02:29:38;;;;;;;8.82;3.47;;;;;;;8.76;73.46;99458.41;4997234;28;20034;-87
2022/05/04 02:32:06;;;;;;;6.13;3.30;;;;;;;8.78;73.57;99462.47;4998838;28;20060;-87
2022/05/04 02:34:31;;;;;;;3.53;2.97;;;;;;;8.88;72.48;99475.16;5015871;28;20019;-87
2022/05/04 02:39:41;;;;;;;4.25;3.50;;;;;;;8.73;73.83;99459.72;5001206;28;20120;-86
2022/05/04 02:42:06;;;;;;;5.05;3.88;;;;;;;8.69;74.75;99464.00;4997656;28;20033;-87
2022/05/04 02:44:32;;;;;;;5.15;3.90;;;;;;;8.64;75.01;99469.31;4997942;28;20034;-86
2022/05/04 02:46:57;;;;;;;8.75;3.97;;;;;;;8.51;74.98;99465.16;5014106;28;20030;-87
2022/05/04 02:49:23;;;;;;;4.63;3.80;;;;;;;8.52;74.82;99466.78;4998076;28;20033;-87
2022/05/04 02:51:48;;;;;;;4.55;3.95;;;;;;;8.46;75.28;99467.78;4997182;28;20026;-86
2022/05/04 02:54:14;;;;;;;5.00;3.80;;;;;;;8.47;75.30;99470.22;4998018;28;20026;-86
2022/05/04 02:56:39;;;;;;;8.18;4.82;;;;;;;8.38;76.29;99478.94;5014706;28;20033;-84
2022/05/04 02:59:05;;;;;;;7.07;4.00;;;;;;;8.31;76.37;99473.75;5015670;28;20033;-85
2022/05/04 03:04:14;;;;;;;5.22;3.95;;;;;;;8.30;76.23;99489.06;5000202;28;20164;-86
2022/05/04 03:06:40;;;;;;;6.25;4.38;;;;;;;8.26;75.57;99474.53;4998281;28;20026;-86
2022/05/04 03:09:06;;;;;;;9.32;4.47;;;;;;;8.28;75.88;99476.97;4997151;28;20519;-86
2022/05/04 03:14:18;;;;;;;6.63;4.65;;;;;;;8.54;74.51;99478.06;5000845;28;20064;-86
2022/05/04 03:16:44;;;;;;;10.98;7.95;;;;;;;8.50;74.63;99475.06;4997475;28;20018;-87
2022/05/04 03:19:09;;;;;;;7.45;4.50;;;;;;;8.48;74.52;99476.38;4997516;28;20033;-87
2022/05/04 03:21:35;;;;;;;6.95;3.92;;;;;;;8.49;75.10;99478.03;5014107;28;20057;-86
2022/05/04 03:24:01;;;;;;;7.00;3.92;;;;;;;8.49;74.77;99467.28;4997966;28;20034;-87
2022/05/04 03:26:27;;;;;;;11.10;4.57;;;;;;;8.50;75.11;99476.94;5013566;28;20022;-87
2022/05/04 03:28:52;;;;;;;10.32;4.75;;;;;;;8.41;75.66;99481.97;5013928;28;20025;-86
2022/05/04 03:31:18;;;;;;;7.30;4.30;;;;;;;8.48;75.81;99479.06;4997672;28;20476;-86
2022/05/04 03:33:43;;;;;;;11.52;4.30;;;;;;;8.50;75.39;99482.31;4997836;28;20045;-88
2022/05/04 03:36:09;;;;;;;21.40;6.07;;;;;;;8.48;75.66;99487.94;4997927;28;20033;-86
2022/05/04 03:38:34;;;;;;;10.60;4.57;;;;;;;8.39;75.45;99477.88;4997517;28;20030;-91
2022/05/04 03:41:00;;;;;;;8.75;4.55;;;;;;;8.43;75.68;99495.13;4983141;28;20034;-90
2022/05/04 03:43:25;;;;;;;10.73;4.25;;;;;;;8.54;75.45;99499.53;4998696;28;20037;-87
2022/05/04 03:45:51;;;;;;;12.43;4.93;;;;;;;8.49;75.13;99494.13;4997391;28;20496;-87
2022/05/04 03:48:16;;;;;;;12.75;4.93;;;;;;;8.47;75.40;99501.63;4998407;28;20033;-88
2022/05/04 03:50:44;;;;;;;11.52;4.90;;;;;;;8.56;74.92;99505.47;4982196;28;20095;-88
2022/05/04 03:53:10;;;;;;;11.57;4.85;;;;;;;8.61;74.24;99505.53;4981940;28;20022;-88
2022/05/04 03:55:36;;;;;;;14.02;6.30;;;;;;;8.66;73.96;99494.84;4998285;28;20026;-87
2022/05/04 03:58:01;;;;;;;9.38;4.72;;;;;;;8.80;73.89;99510.53;4980696;28;20408;-87
2022/05/04 04:00:27;;;;;;;12.25;5.40;;;;;;;8.88;73.32;99502.84;4993198;28;20472;-86
2022/05/04 04:02:52;;;;;;;16.75;8.75;;;;;;;9.00;72.28;99504.56;4997964;28;20196;-88
2022/05/04 04:05:18;;;;;;;12.57;4.72;;;;;;;9.07;71.50;99505.97;4997374;28;20030;-88
2022/05/04 04:10:42;;;;;;;7.05;5.22;;;;;;;9.05;70.71;99518.84;4850849;26;20058;-88
2022/05/04 04:13:07;;;;;;;10.00;3.88;;;;;;;8.99;70.73;99502.94;4945072;28;20037;-91
2022/05/04 04:15:33;;;;;;;10.73;3.90;;;;;;;9.06;71.18;99525.84;4961155;28;20062;-89
2022/05/04 04:17:58;;;;;;;8.98;3.88;;;;;;;9.15;69.78;99523.50;4942885;28;20088;-87
2022/05/04 04:23:08;;;;;;;9.07;3.83;;;;;;;9.33;69.59;99525.00;4966742;28;20173;-88
2022/05/04 04:25:34;;;;;;;5.85;4.10;;;;;;;9.41;70.05;99524.53;4961326;28;20030;-89
2022/05/04 04:27:59;;;;;;;12.88;4.40;;;;;;;9.39;69.30;99512.41;4951152;28;20034;-90
2022/05/04 04:30:25;;;;;;;10.13;3.92;;;;;;;9.51;68.63;99527.28;4961083;28;20030;-89
2022/05/04 04:32:50;;;;;;;8.73;3.63;;;;;;;9.48;68.36;99524.31;4960732;28;20041;-88
2022/05/04 04:35:16;;;;;;;21.27;4.57;;;;;;;9.35;69.17;99527.44;4961710;28;20120;-90
2022/05/04 04:37:41;;;;;;;10.27;4.20;;;;;;;9.41;69.72;99529.91;4960447;28;20030;-89
2022/05/04 04:40:09;;;;;;;7.93;3.75;;;;;;;9.62;68.19;99541.59;4959961;28;20073;-92
2022/05/04 04:42:35;;;;;;;24.80;5.70;;;;;;;9.62;68.63;99530.84;4970518;28;20030;-87
2022/05/04 04:45:00;;;;;;;12.20;4.07;;;;;;;9.54;68.51;99533.22;4961778;28;20493;-88
2022/05/04 04:47:26;;;;;;;13.93;4.63;;;;;;;9.47;69.28;99536.13;4962710;28;20507;-90
2022/05/04 04:49:55;;;;;;;13.40;5.53;;;;;;;9.34;69.79;99536.53;4964940;28;20026;-88
2022/05/04 04:52:20;;;;;;;9.52;3.58;;;;;;;9.27;68.82;99531.38;4966211;28;20023;-90
2022/05/04 04:54:46;;;;;;;8.95;4.55;;;;;;;9.27;70.02;99521.44;4941804;28;20477;-93
2022/05/04 04:57:11;;;;;;;8.38;4.18;;;;;;;9.44;68.99;99510.59;4969694;28;20030;-89
2022/05/04 04:59:37;;;;;;;14.00;5.22;;;;;;;9.54;68.60;99520.59;4960815;28;20056;-90
2022/05/04 05:02:02;;;;;;;8.32;3.97;;;;;;;9.69;68.25;99541.38;4981661;28;20041;-88
2022/05/04 05:04:28;;;;;;;8.07;3.85;;;;;;;9.71;67.20;99504.28;4982891;28;20035;-92
2022/05/04 05:06:57;;;;;;;21.33;5.78;;;;;;;9.93;67.80;99528.38;4962577;28;20035;-89
2022/05/04 05:09:22;;;;;;;10.98;4.53;;;;;;;10.04;67.50;99531.91;4958956;29;20058;-88
2022/05/04 05:11:48;;;;;;;7.88;3.35;;;;;;;10.11;65.72;99525.25;4942575;29;20039;-86
2022/05/04 05:16:57;;;;;;;22.70;7.43;;;;;;;10.17;67.33;99520.72;4959068;29;20038;-89
2022/05/04 05:19:23;;;;;;;28.63;4.82;;;;;;;10.38;66.42;99528.91;4944420;29;20035;-88
2022/05/04 05:21:48;;;;;;;11.40;4.03;;;;;;;10.54;64.82;99533.25;4929581;29;20027;-91
2022/05/04 05:24:15;;;;;;;10.10;4.70;;;;;;;10.62;64.76;99521.16;4928260;29;20027;-89
2022/05/04 05:26:41;;;;;;;11.98;3.65;;;;;;;10.68;64.04;99518.22;4929283;29;20557;-91
2022/05/04 05:29:06;;;;;;;6.60;3.80;;;;;;;10.87;63.65;99517.72;4963685;28;20019;-89
2022/05/04 05:31:35;;;;;;;8.63;3.95;;;;;;;10.99;63.75;99507.50;4946310;28;20023;-88
2022/05/04 05:34:00;;;;;;;13.70;3.47;;;;;;;10.98;64.06;99513.97;4935894;28;20067;-89
2022/05/04 05:36:26;;;;;;;4.72;3.20;;;;;;;11.03;61.98;99521.25;4948874;28;20015;-89
2022/05/04 05:38:51;;;;;;;11.73;4.80;;;;;;;10.91;64.08;99508.84;4932396;28;20027;-90
2022/05/04 05:41:17;;;;;;;9.38;3.90;;;;;;;10.90;62.86;99504.53;4946769;28;20031;-88
2022/05/04 05:43:43;;;;;;;8.55;3.88;;;;;;;11.00;63.17;99503.75;4945333;28;20059;-90
2022/05/04 05:46:08;;;;;;;11.25;4.35;;;;;;;11.05;63.24;99514.50;4950499;28;20023;-90
2022/05/04 05:48:34;;;;;;;8.90;3.65;;;;;;;11.17;62.88;99519.66;4926208;28;20042;-88
2022/05/04 05:51:04;;;;;;;6.85;3.20;;;;;;;11.32;62.71;99533.13;4947781;28;20037;-88
2022/05/04 05:53:31;;;;;;;9.48;3.83;;;;;;;11.23;62.18;99491.63;4963742;28;20022;-90
2022/05/04 05:55:57;;;;;;;10.05;3.45;;;;;;;11.40;62.30;99515.59;4955024;28;20094;-88
2022/05/04 05:58:22;;;;;;;18.83;3.90;;;;;;;11.55;61.58;99511.28;4956603;28;20022;-88
2022/05/04 06:00:49;;;;;;;17.60;9.45;;;;;;;11.76;61.77;99517.47;4980189;28;20023;-90
2022/05/04 06:03:15;;;;;;;10.05;3.25;;;;;;;12.02;59.61;99539.84;4947162;28;20080;-89
2022/05/04 06:05:41;;;;;;;9.05;3.60;;;;;;;11.78;60.14;99512.59;4946144;28;20087;-89
2022/05/04 06:08:09;;;;;;;15.32;3.75;;;;;;;11.50;60.99;99518.31;4931579;28;20057;-91
2022/05/04 06:10:35;;;;;;;4.55;2.78;;;;;;;12.04;59.78;99538.47;4976221;28;20046;-89
2022/05/04 06:13:01;;;;;;;10.40;3.75;;;;;;;12.25;60.24;99533.03;4956658;28;20026;-88
2022/05/04 06:15:27;;;;;;;11.05;3.50;;;;;;;12.10;60.72;99523.09;5003362;28;20524;-88
2022/05/04 06:18:04;;;;;;;6.82;2.88;;;;;;;12.00;61.81;99521.22;4987122;28;20037;-88
2022/05/04 06:20:33;;;;;;;9.82;4.22;;;;;;;11.98;60.42;99507.19;4992354;28;20026;-88
2022/05/04 06:22:58;;;;;;;5.75;3.47;;;;;;;12.30;60.06;99525.69;4967466;28;20034;-87
2022/05/04 06:25:24;;;;;;;6.03;3.50;;;;;;;12.58;59.46;99528.84;4951940;28;20030;-91
2022/05/04 06:27:49;;;;;;;11.25;3.60;;;;;;;12.74;59.24;99510.63;4969843;28;20054;-90
2022/05/04 06:35:43;;;;;;;15.45;9.43;;;;;;;12.94;56.14;99493.47;4998210;28;20045;-91
2022/05/04 06:38:10;;;;;;;17.20;8.75;;;;;;;12.96;57.17;99499.41;4999426;28;20030;-91
2022/05/04 06:40:38;;;;;;;16.17;11.15;;;;;;;13.05;56.92;99505.03;4983971;28;20058;-90
2022/05/04 06:43:14;;;;;;;20.40;10.18;;;;;;;13.07;57.94;99522.59;4966232;28;20030;-94
2022/05/04 06:45:40;;;;;;;25.90;8.77;;;;;;;13.01;57.08;99502.09;4965596;28;20053;-90
2022/05/04 06:48:07;;;;;;;30.10;10.65;;;;;;;12.93;56.67;99498.09;4997033;28;20014;-90
2022/05/04 06:50:32;;;;;;;21.38;8.70;;;;;;;13.02;57.95;99508.31;4962823;28;20019;-88
2022/05/04 06:52:58;;;;;;;14.68;5.07;;;;;;;13.13;58.53;99504.44;4978061;28;20031;-89
2022/05/04 06:55:23;;;;;;;10.07;6.57;;;;;;;13.38;58.30;99506.16;4960345;28;20029;-90
2022/05/04 06:57:49;;;;;;;12.63;6.55;;;;;;;13.69;56.15;99525.63;4947364;28;20034;-89
2022/05/04 07:00:15;;;;;;;13.13;7.03;;;;;;;13.57;56.39;99503.53;4966668;28;20445;-88
2022/05/04 07:02:48;;;;;;;10.15;6.63;;;;;;;13.86;56.21;99518.97;4960846;28;20030;-89
2022/05/04 07:05:17;;;;;;;16.52;5.75;;;;;;;13.98;55.19;99491.50;4962023;28;20031;-89
2022/05/04 07:07:43;;;;;;;12.88;4.65;;;;;;;14.23;54.60;99509.34;4965046;28;20033;-90
2022/05/04 07:10:10;;;;;;;11.48;7.25;;;;;;;14.39;55.16;99515.41;4979722;28;20604;-94
2022/05/04 07:12:35;;;;;;;14.52;8.20;;;;;;;14.24;55.88;99500.94;4997178;28;20484;-90
2022/05/04 07:15:07;;;;;;;14.90;4.75;;;;;;;14.49;54.71;99502.53;4978864;28;20023;-90
2022/05/04 07:17:40;;;;;;;14.35;5.28;;;;;;;14.73;54.93;99513.34;4981440;28;20395;-93
2022/05/04 07:20:06;;;;;;;13.63;4.97;;;;;;;14.72;54.13;99498.19;4967208;28;20030;-90
2022/05/04 07:22:31;;;;;;;10.48;4.90;;;;;;;14.88;53.14;99514.22;4964055;28;20057;-89
2022/05/04 07:25:00;;;;;;;10.25;4.90;;;;;;;14.84;53.10;99502.38;4968197;28;20027;-91
2022/05/04 07:27:25;;;;;;;9.50;4.57;;;;;;;15.04;52.24;99506.66;4971770;28;20007;-89
2022/05/04 07:29:51;;;;;;;14.85;4.80;;;;;;;15.18;52.24;99493.16;4949137;28;20090;-95
2022/05/04 07:32:16;;;;;;;9.15;4.68;;;;;;;15.35;51.50;99504.25;4969163;28;20022;-90
2022/05/04 07:34:44;;;;;;;11.77;4.80;;;;;;;15.42;51.89;99495.75;4962428;28;20023;-92
2022/05/04 07:37:23;;;;;;;11.57;4.72;;;;;;;15.65;51.54;99508.38;4991150;28;20042;-94
2022/05/04 07:43:02;;;;;;;19.52;5.78;;;;;;;15.73;51.15;99472.44;4996264;28;20041;-92
2022/05/04 07:45:28;;;;;;;16.30;5.10;;;;;;;15.98;50.38;99499.38;4984301;28;20019;-96
2022/05/04 07:47:55;;;;;;;18.33;5.18;;;;;;;16.21;50.67;99501.09;4969455;28;20037;-92
2022/05/04 07:50:20;;;;;;;13.77;4.32;;;;;;;16.35;49.18;99490.22;4967596;28;20026;-90
2022/05/04 07:52:54;;;;;;;12.40;5.60;;;;;;;16.61;49.04;99498.63;4954231;28;20022;-95
2022/05/04 07:55:20;;;;;;;10.30;4.18;;;;;;;16.90;48.90;99514.59;4954773;28;20100;-95
2022/05/04 07:57:48;;;;;;;20.13;5.97;;;;;;;16.83;48.55;99494.38;4986508;28;20169;-92
2022/05/04 08:05:51;;;;;;;8.75;3.83;;;;;;;16.87;47.45;99492.66;4978109;28;20118;-92
2022/05/04 08:08:19;;;;;;;7.75;3.30;;;;;;;16.98;45.48;99493.22;4952540;28;20066;-89
2022/05/04 08:10:46;;;;;;;9.25;4.40;;;;;;;17.11;45.70;99503.25;4980355;28;20047;-94
2022/05/04 08:13:19;;;;;;;9.27;6.38;;;;;;;17.21;45.70;99499.47;4933973;28;20034;-94
2022/05/04 08:15:46;;;;;;;14.90;4.07;;;;;;;17.24;45.93;99496.94;4933310;29;20038;-95
2022/05/04 08:18:11;;;;;;;5.93;2.92;;;;;;;17.31;44.34;99510.91;4933091;29;20035;-94
2022/05/04 08:20:37;;;;;;;7.60;3.20;;;;;;;17.36;45.04;99515.44;4937948;29;20022;-96
2022/05/04 08:23:10;;;;;;;9.05;3.40;;;;;;;16.94;45.38;99491.13;4937615;28;20038;-96
2022/05/04 08:25:40;;;;;;;14.10;4.07;;;;;;;17.10;45.10;99526.09;4940041;28;20038;-95
2022/05/04 08:28:34;;;;;;;8.23;3.53;;;;;;;17.01;45.33;99498.84;4939443;29;20027;-94
2022/05/04 08:31:01;;;;;;;12.82;4.43;;;;;;;17.11;46.15;99503.25;4953433;29;20040;-93
2022/05/04 08:33:28;;;;;;;6.30;3.65;;;;;;;17.34;44.43;99488.50;4920016;29;20091;-89
2022/05/04 08:36:17;;;;;;;7.00;3.55;;;;;;;17.42;45.29;99480.72;4918764;29;20104;-92
2022/05/04 08:38:43;;;;;;;13.35;5.40;;;;;;;17.35;44.97;99494.78;4929751;29;20035;-87
2022/05/04 08:41:36;;;;;;;7.43;4.10;;;;;;;17.69;44.13;99483.25;4939316;29;20048;-93
2022/05/04 08:44:31;;;;;;;3.95;2.70;;;;;;;17.83;42.34;99488.66;4910996;29;20007;-95
2022/05/04 08:47:05;;;;;;;9.80;3.58;;;;;;;17.74;43.39;99491.31;4945978;29;20111;-94
2022/05/04 08:49:34;;;;;;;11.98;3.38;;;;;;;18.12;42.81;99509.94;4895699;29;20581;-94
2022/05/04 08:52:02;;;;;;;4.55;3.10;;;;;;;18.23;42.97;99520.53;4895634;29;20024;-92
2022/05/04 08:54:30;;;;;;;12.07;3.67;;;;;;;18.26;43.18;99512.53;4899320;29;20045;-94
2022/05/04 08:56:57;;;;;;;10.63;3.65;;;;;;;18.21;43.51;99530.97;4885513;29;20484;-92
2022/05/04 08:59:41;;;;;;;6.93;3.55;;;;;;;18.38;42.30;99515.44;4881221;29;20044;-93
2022/05/04 09:02:08;;;;;;;12.02;3.50;;;;;;;18.43;42.39;99497.31;4903790;29;20045;-90
2022/05/04 09:04:40;;;;;;;13.85;7.80;;;;;;;18.65;42.14;99519.03;4911478;29;20059;-91
2022/05/04 09:07:34;;;;;;;12.48;6.72;;;;;;;18.90;41.66;99505.75;4904479;29;20047;-92
2022/05/04 09:10:06;;;;;;;11.57;4.63;;;;;;;19.09;40.83;99514.44;4917560;29;20112;-92
2022/05/04 09:12:35;;;;;;;9.40;3.35;;;;;;;19.02;39.88;99497.75;4893434;29;20037;-90
2022/05/04 09:15:04;;;;;;;8.98;3.45;;;;;;;19.17;39.50;99497.25;4892925;29;20123;-91
2022/05/04 09:17:30;;;;;;;7.57;3.30;;;;;;;19.09;39.28;99498.06;4912646;29;20045;-93
2022/05/04 09:22:59;;;;;;;9.77;6.13;;;;;;;18.77;37.96;99491.13;4954633;29;20042;-96
2022/05/04 09:25:37;;;;;;;6.70;4.20;;;;;;;18.83;38.61;99487.16;4929114;29;20031;-96
2022/05/04 09:28:02;;;;;;;7.80;3.92;;;;;;;18.78;39.87;99482.66;4937063;29;20067;-96
2022/05/04 09:30:38;;;;;;;11.70;5.25;;;;;;;18.94;40.46;99476.72;4937178;29;20031;-95
2022/05/04 09:33:13;;;;;;;19.65;10.98;;;;;;;19.23;38.66;99508.00;4950995;29;20527;-92
2022/05/04 09:35:41;;;;;;;16.73;7.13;;;;;;;19.38;38.92;99475.53;4934691;28;20039;-94
2022/05/04 09:47:07;;;;;;;3.58;1.40;;;;;;;18.89;32.93;99480.41;4954375;28;20034;-95
2022/05/04 09:49:35;;;;;;;3.50;1.70;;;;;;;18.68;33.22;99461.13;4952233;28;20023;-94
2022/05/04 09:52:21;;;;;;;2.63;1.90;;;;;;;18.83;34.40;99475.44;4935185;28;20043;-94
2022/05/04 09:55:01;;;;;;;2.33;1.58;;;;;;;18.87;32.60;99479.94;4935577;28;20022;-94
2022/05/04 09:57:29;;;;;;;4.50;1.90;;;;;;;18.68;33.04;99466.56;4950775;28;20067;-93
2022/05/04 09:59:54;;;;;;;2.78;1.80;;;;;;;18.67;32.37;99484.06;4951372;28;20031;-88
2022/05/04 10:02:23;;;;;;;7.32;1.92;;;;;;;18.70;32.14;99499.78;4941457;29;20094;-91
2022/05/04 10:04:49;;;;;;;1.90;1.70;;;;;;;18.59;32.92;99493.03;4944304;29;20031;-86
2022/05/04 10:07:16;;;;;;;3.30;1.60;;;;;;;18.56;33.33;99485.50;4946985;29;20023;-93
2022/05/04 10:09:44;;;;;;;4.75;2.15;;;;;;;18.66;34.49;99498.81;4965263;28;20136;-95
2022/05/04 10:12:18;;;;;;;10.38;5.85;;;;;;;18.50;35.04;99452.13;4969438;28;20481;-93
2022/05/04 10:14:44;;;;;;;2.67;1.77;;;;;;;18.52;34.60;99454.53;4967466;28;20035;-93
2022/05/04 10:17:14;;;;;;;4.07;2.40;;;;;;;18.70;35.71;99480.69;4958069;28;20046;-93
2022/05/04 10:19:50;;;;;;;2.95;2.00;;;;;;;18.60;35.56;99453.75;4977691;28;20078;-92
2022/05/04 10:22:23;;;;;;;3.60;1.85;;;;;;;18.64;36.08;99465.63;4974970;28;20053;-89
2022/05/04 10:24:48;;;;;;;2.88;1.67;;;;;;;18.80;35.86;99462.44;4981578;28;20526;-88
2022/05/04 10:27:18;;;;;;;2.17;1.70;;;;;;;18.85;36.15;99459.56;4986750;28;20046;-96
2022/05/04 10:33:11;;;;;;;5.32;2.20;;;;;;;19.00;36.53;99459.06;4988254;28;20061;-94
2022/05/04 10:35:43;;;;;;;5.65;2.05;;;;;;;18.86;37.98;99461.94;5001751;28;20011;-95
2022/05/04 10:38:16;;;;;;;;;;;;;;;19.05;36.65;99467.09;4984763;28;20026;-93
2022/05/04 10:40:50;;;;;;;16.63;12.63;;;;;;;19.00;37.84;99439.16;4983557;28;19937;-96
2022/05/04 10:43:40;;;;;;;4.22;2.00;;;;;;;18.87;37.13;99451.84;4999958;28;20113;-93
2022/05/04 10:46:16;;;;;;;;;;;;;;;19.07;36.74;99455.81;5000880;28;20045;-93
2022/05/04 10:48:46;;;;;;;3.40;1.75;;;;;;;19.01;37.23;99440.75;5001774;28;19909;-94
2022/05/04 10:51:20;;;;;;;4.95;2.00;;;;;;;19.11;37.22;99445.88;4989019;28;20022;-94
2022/05/04 10:53:49;;;;;;;3.45;1.90;;;;;;;19.02;37.11;99426.78;4971893;28;20085;-95
2022/05/04 10:56:43;;;;;;;6.15;2.58;;;;;;;18.97;37.54;99418.78;5004726;28;20037;-95
2022/05/04 10:59:12;;;;;;;7.45;2.10;;;;;;;19.23;37.13;99442.50;4972300;28;20085;-96
2022/05/04 11:01:39;;;;;;;4.25;2.00;;;;;;;19.21;37.38;99423.69;4988993;28;20018;-95
2022/05/04 11:04:09;;;;;;;9.40;2.90;;;;;;;19.54;37.41;99434.84;4983907;28;20432;-95
2022/05/04 11:06:45;;;;;;;4.78;2.33;;;;;;;19.49;36.44;99421.38;4989483;28;20033;-88
2022/05/04 11:09:14;;;;;;;7.88;1.92;;;;;;;19.58;36.12;99443.97;4962246;28;20525;-89
2022/05/04 11:12:03;;;;;;;4.93;2.30;;;;;;;19.08;36.99;99406.38;4978242;28;20074;-91
2022/05/04 11:14:34;;;;;;;14.00;3.33;;;;;;;19.23;37.27;99412.47;4962135;28;20046;-87
2022/05/04 11:17:02;;;;;;;6.18;2.00;;;;;;;19.45;36.84;99419.63;4946942;28;20054;-91
2022/05/04 11:19:29;;;;;;;5.03;3.58;;;;;;;19.34;36.53;99411.78;4962100;28;20019;-88
2022/05/04 11:22:26;;;;;;;4.15;2.22;;;;;;;19.58;35.23;99433.06;4963492;28;20362;-91
2022/05/04 11:24:53;;;;;;;5.22;2.22;;;;;;;19.64;35.61;99427.44;4996902;28;20078;-93
2022/05/04 11:27:20;;;;;;;4.95;2.15;;;;;;;19.73;35.37;99420.81;4966993;28;20034;-92
2022/05/04 11:29:46;;;;;;;3.08;1.75;;;;;;;19.64;34.81;99424.69;4969334;28;20027;-93
2022/05/04 11:32:20;;;;;;;5.32;2.10;;;;;;;19.47;34.78;99403.72;4959566;28;20489;-89
2022/05/04 11:34:45;;;;;;;5.53;2.35;;;;;;;19.54;35.18;99413.00;4992344;28;20057;-93
2022/05/04 11:37:14;;;;;;;12.70;5.43;;;;;;;19.72;34.64;99418.44;4994251;28;20023;-91
2022/05/04 11:39:44;;;;;;;9.60;2.30;;;;;;;19.43;34.85;99403.56;4964443;28;20030;-90
2022/05/04 11:42:12;;;;;;;3.25;1.70;;;;;;;19.68;34.85;99404.59;4982870;28;20034;-94
2022/05/04 11:44:46;;;;;;;7.25;2.92;;;;;;;19.78;35.69;99406.97;4978939;28;20038;-91
2022/05/04 11:47:13;;;;;;;3.10;2.08;;;;;;;19.77;35.17;99397.16;4921262;29;20039;-89
2022/05/04 11:49:45;;;;;;;15.93;10.05;;;;;;;19.86;34.08;99420.91;4937891;29;20035;-92
2022/05/04 11:52:10;;;;;;;3.22;2.00;;;;;;;20.02;34.64;99423.91;4895669;29;20040;-89
2022/05/04 11:54:36;;;;;;;4.20;1.80;;;;;;;19.82;31.94;99404.41;4889117;29;20042;-91
2022/05/04 11:57:12;;;;;;;5.63;2.90;;;;;;;19.65;33.97;99383.41;4909301;29;20066;-89
2022/05/04 11:59:37;;;;;;;6.22;2.70;;;;;;;19.86;33.93;99379.94;4906893;29;20508;-90
2022/05/04 12:02:03;;;;;;;5.72;2.20;;;;;;;20.15;33.62;99381.84;4917221;29;20036;-90
2022/05/04 12:04:28;;;;;;;7.35;4.60;;;;;;;20.39;33.61;99384.72;4914126;29;20028;-91
2022/05/04 12:06:55;;;;;;;4.55;2.30;;;;;;;20.42;32.81;99376.97;4938980;29;20043;-91
2022/05/04 12:09:21;;;;;;;3.00;1.85;;;;;;;20.35;32.49;99372.84;4914677;29;20135;-90
2022/05/04 12:11:48;;;;;;;7.35;4.38;;;;;;;20.56;33.38;99394.72;4905693;29;20135;-91
2022/05/04 12:14:16;;;;;;;2.90;1.90;;;;;;;20.58;33.83;99378.00;4892435;29;20032;-90
2022/05/04 12:16:45;;;;;;;5.97;1.92;;;;;;;20.67;33.05;99365.06;4910212;29;20455;-94
2022/05/04 12:22:39;;;;;;;3.72;1.92;;;;;;;20.74;32.39;99376.25;4977858;28;20049;-93
2022/05/04 12:25:26;;;;;;;2.78;2.30;;;;;;;20.74;31.87;99373.50;4965915;28;20027;-94
2022/05/04 12:27:52;;;;;;;3.85;1.58;;;;;;;20.69;32.09;99368.25;4961588;28;20038;-94